Bircotes, United Kingdom
Current Conditions -  °F | °C
As of 4:20 AM on Tuesday 21 Oct 2014 (Local Time) from EGCN Reporting Station
Broken Clouds Broken Clouds  
Wind Chill: 55°   Ceiling: 2400
Heat Index: 55°   Visibility: 6mi
Dew Point: 52°   Wind: 17mph
Humidity: 88%   Direction: 180°S
Pressure: 29.44"   Gusts: NA
Location:  53.42°N, 1.05°W
Report Text: EGCN 210320Z 18015KT 9999 SCT015 BKN024 13/11 Q0997
Loading
Personal Weather Stations






























Interactive Weather Map
Tropical Storm Tracking
New forecast layout! Learn more

10-Day Weather Forecast

Advertisements
Track Severe Weather on mobile